Time;durP1;ratioP1;P1;durP2;ratioP2;P2;SDS_P1;SDS_P2;PMS_P1;PMS_P2;Temp;Humidity;BMP_temperature;BMP_pressure;BME280_temperature;BME280_humidity;BME280_pressure;Samples;Min_cycle;Max_cycle;Signal;HPM_P1;HPM_P2
2021/08/20 00:02:31;;;;;;;3.40;2.10;;;;;;;18.69;44.64;101129.31;2631797;36;22047;-71
2021/08/20 00:05:04;;;;;;;2.90;1.80;;;;;;;18.69;44.75;101126.53;2613623;47;20042;-71
2021/08/20 00:07:34;;;;;;;2.90;1.85;;;;;;;18.66;45.13;101117.72;2641412;36;20170;-72
2021/08/20 00:10:05;;;;;;;3.30;2.20;;;;;;;18.64;44.65;101120.69;2613667;54;20038;-71
2021/08/20 00:12:35;;;;;;;3.78;2.00;;;;;;;18.61;44.70;101112.72;2650248;36;20037;-72
2021/08/20 00:15:06;;;;;;;3.20;1.98;;;;;;;18.60;44.73;101116.56;2613852;47;20034;-73
2021/08/20 00:17:36;;;;;;;3.22;1.90;;;;;;;18.60;44.95;101116.56;2652270;36;20030;-71
2021/08/20 00:20:09;;;;;;;2.92;1.70;;;;;;;18.60;44.79;101119.31;2615349;54;20022;-70
2021/08/20 00:22:39;;;;;;;3.25;1.88;;;;;;;18.56;44.60;101119.84;2642528;36;20030;-72
2021/08/20 00:25:11;;;;;;;3.00;1.65;;;;;;;18.57;44.66;101114.13;2614520;54;20046;-73
2021/08/20 00:27:40;;;;;;;3.40;1.88;;;;;;;18.54;44.67;101111.69;2615243;54;20034;-71
2021/08/20 00:30:13;;;;;;;3.67;1.90;;;;;;;18.53;44.67;101109.97;2613662;47;20134;-72
2021/08/20 00:32:43;;;;;;;3.28;1.65;;;;;;;18.50;44.70;101115.03;2613815;54;20049;-73
2021/08/20 00:35:16;;;;;;;4.57;1.83;;;;;;;18.52;44.69;101124.03;2612692;39;20457;-73
2021/08/20 00:37:46;;;;;;;2.80;1.70;;;;;;;18.43;44.58;101123.19;2613381;54;20031;-72
2021/08/20 00:40:20;;;;;;;3.17;1.90;;;;;;;18.44;44.47;101119.38;2613248;54;20034;-72
2021/08/20 00:42:51;;;;;;;3.40;1.85;;;;;;;18.40;44.62;101118.84;2650300;36;20034;-71
2021/08/20 00:45:21;;;;;;;3.45;1.77;;;;;;;18.38;44.46;101120.94;2613677;47;20688;-71
2021/08/20 00:47:51;;;;;;;3.08;1.70;;;;;;;18.36;44.75;101127.72;2612968;47;20916;-73
2021/08/20 00:50:23;;;;;;;4.07;2.10;;;;;;;18.36;44.79;101122.16;2613446;54;20033;-71
2021/08/20 00:52:55;;;;;;;4.07;2.03;;;;;;;18.31;44.63;101124.59;2650241;36;20612;-73
2021/08/20 00:55:26;;;;;;;2.80;1.80;;;;;;;18.30;44.80;101133.94;2613602;39;20098;-71
2021/08/20 00:57:58;;;;;;;3.40;2.00;;;;;;;18.24;45.01;101138.28;2650103;36;20643;-71
2021/08/20 01:00:28;;;;;;;3.40;1.85;;;;;;;18.23;44.79;101131.00;2613536;39;20492;-73
2021/08/20 01:02:58;;;;;;;3.97;2.10;;;;;;;18.22;44.80;101128.41;2613599;50;20057;-72
2021/08/20 01:05:32;;;;;;;3.42;2.00;;;;;;;18.20;44.90;101125.81;2613848;47;20029;-71
2021/08/20 01:08:03;;;;;;;3.67;2.13;;;;;;;18.18;45.16;101132.59;2613176;47;20117;-72
2021/08/20 01:10:33;;;;;;;4.13;1.80;;;;;;;18.17;45.05;101139.16;2613895;54;20046;-71
2021/08/20 01:13:03;;;;;;;3.17;1.85;;;;;;;18.16;45.24;101134.66;2613754;47;20152;-73
2021/08/20 01:15:33;;;;;;;3.35;1.80;;;;;;;18.15;44.96;101138.47;2613504;46;20822;-73
2021/08/20 01:18:03;;;;;;;4.32;2.10;;;;;;;18.13;45.16;101133.09;2650006;36;20599;-73
2021/08/20 01:20:35;;;;;;;5.30;2.20;;;;;;;18.13;45.08;101133.09;2613886;53;20057;-71
2021/08/20 01:23:08;;;;;;;4.35;1.98;;;;;;;18.11;44.84;101134.34;2641792;36;20579;-72
2021/08/20 01:25:40;;;;;;;2.95;1.90;;;;;;;18.11;45.21;101134.34;2613453;54;20057;-72
2021/08/20 01:28:11;;;;;;;3.35;2.15;;;;;;;18.08;45.28;101129.13;2649970;36;20174;-71
2021/08/20 01:30:41;;;;;;;4.40;1.98;;;;;;;18.07;45.00;101131.03;2613490;47;20058;-71
2021/08/20 01:33:11;;;;;;;3.17;1.90;;;;;;;18.04;45.41;101129.47;2613251;46;20026;-71
2021/08/20 01:35:43;;;;;;;3.72;1.92;;;;;;;18.03;44.93;101121.34;2612833;47;20030;-71
2021/08/20 01:38:13;;;;;;;3.83;2.20;;;;;;;18.00;45.49;101114.22;2613393;47;20045;-71
2021/08/20 01:40:45;;;;;;;4.50;2.38;;;;;;;18.00;45.16;101119.78;2613243;46;20038;-72
2021/08/20 01:43:17;;;;;;;2.88;1.85;;;;;;;17.96;45.13;101120.28;2613383;47;20156;-71
2021/08/20 01:45:47;;;;;;;4.03;2.20;;;;;;;17.97;44.73;101116.47;2612917;47;20042;-72
2021/08/20 01:48:18;;;;;;;3.42;1.98;;;;;;;17.94;45.31;101112.16;2612907;47;20069;-72
2021/08/20 01:50:47;;;;;;;3.05;2.00;;;;;;;17.93;45.27;101127.03;2613132;46;20041;-71
2021/08/20 01:53:20;;;;;;;3.85;1.98;;;;;;;17.93;44.96;101128.94;2612849;47;20026;-73
2021/08/20 01:55:55;;;;;;;3.92;2.35;;;;;;;17.92;45.25;101129.97;2613266;54;20660;-73
2021/08/20 01:58:24;;;;;;;4.45;2.05;;;;;;;17.88;45.39;101132.22;2649610;36;20057;-72
2021/08/20 02:00:55;;;;;;;5.10;2.78;;;;;;;17.87;44.90;101133.25;2612993;54;20041;-72
2021/08/20 02:03:26;;;;;;;6.43;2.85;;;;;;;17.86;44.86;101137.09;2612915;47;20113;-73
2021/08/20 02:05:56;;;;;;;3.92;2.53;;;;;;;17.84;45.22;101133.63;2612945;54;20576;-71
2021/08/20 02:08:26;;;;;;;4.88;2.30;;;;;;;17.82;45.06;101123.75;2649470;36;20035;-71
2021/08/20 02:10:59;;;;;;;3.63;2.33;;;;;;;17.81;45.24;101133.94;2613591;39;20489;-71
2021/08/20 02:13:28;;;;;;;;;;;;;;;17.52;45.71;101139.13;2649722;36;20034;-72
2021/08/20 02:16:03;;;;;;;3.40;2.30;;;;;;;17.72;45.11;101137.75;2613204;47;20096;-71
2021/08/20 02:18:33;;;;;;;3.97;2.70;;;;;;;17.73;45.16;101139.50;2649377;36;20034;-72
2021/08/20 02:21:03;;;;;;;4.30;2.67;;;;;;;17.73;45.53;101136.72;2612825;47;20154;-73
2021/08/20 02:23:36;;;;;;;5.05;3.20;;;;;;;17.72;45.55;101148.81;2649758;36;20055;-71
2021/08/20 02:26:11;;;;;;;3.85;2.75;;;;;;;17.73;45.31;101141.38;2613447;47;20037;-71
2021/08/20 02:28:41;;;;;;;5.28;2.95;;;;;;;17.67;45.27;101154.03;2613841;39;20440;-71
2021/08/20 02:31:11;;;;;;;5.45;2.95;;;;;;;17.67;45.52;101148.47;2613710;47;20042;-72
2021/08/20 02:33:45;;;;;;;5.22;3.45;;;;;;;17.64;45.63;101157.97;2612900;47;20041;-71
2021/08/20 02:36:15;;;;;;;5.15;2.80;;;;;;;17.62;45.83;101150.88;2612784;47;20090;-71
2021/08/20 02:38:47;;;;;;;5.57;2.90;;;;;;;17.63;45.38;101149.84;2613175;47;20032;-72
2021/08/20 02:41:19;;;;;;;5.57;3.20;;;;;;;17.60;45.58;101156.59;2612924;54;20432;-73
2021/08/20 02:43:49;;;;;;;4.10;2.72;;;;;;;17.57;45.55;101145.88;2613183;47;20042;-72
2021/08/20 02:46:20;;;;;;;4.97;2.97;;;;;;;17.57;45.29;101151.41;2612880;51;20038;-71
2021/08/20 02:48:50;;;;;;;5.10;3.30;;;;;;;17.56;45.55;101151.56;2613301;54;20051;-72
2021/08/20 02:51:20;;;;;;;5.97;3.63;;;;;;;17.54;45.63;101148.97;2612901;47;20052;-72
2021/08/20 02:53:50;;;;;;;5.25;3.28;;;;;;;17.54;45.57;101153.63;2612925;39;20512;-71
2021/08/20 02:56:23;;;;;;;5.05;3.40;;;;;;;17.55;45.80;101152.59;2613228;47;20065;-72
2021/08/20 02:58:58;;;;;;;5.30;3.05;;;;;;;17.51;45.82;101159.53;2640645;36;20034;-71
2021/08/20 03:01:28;;;;;;;6.22;3.55;;;;;;;17.50;45.51;101150.38;2612465;47;20069;-71
2021/08/20 03:04:03;;;;;;;5.13;3.38;;;;;;;17.48;45.36;101149.66;2649657;36;20193;-73
2021/08/20 03:06:34;;;;;;;6.35;3.72;;;;;;;17.48;45.47;101154.31;2612438;47;20034;-72
2021/08/20 03:09:06;;;;;;;5.93;3.70;;;;;;;17.46;45.81;101159.16;2612620;47;20030;-71
2021/08/20 03:11:42;;;;;;;5.43;3.78;;;;;;;17.47;45.44;101161.75;2612934;47;20071;-73
2021/08/20 03:14:12;;;;;;;5.50;3.45;;;;;;;17.42;45.25;101161.41;2648995;36;20038;-72
2021/08/20 03:16:45;;;;;;;5.55;3.40;;;;;;;17.42;45.71;101166.09;2612310;47;20034;-72
2021/08/20 03:19:15;;;;;;;6.20;3.70;;;;;;;17.43;45.96;101165.91;2649958;36;20045;-71
2021/08/20 03:21:45;;;;;;;5.57;3.88;;;;;;;17.41;45.44;101167.97;2612996;47;20091;-72
2021/08/20 03:24:15;;;;;;;6.07;3.80;;;;;;;17.40;45.52;101157.94;2612718;47;20164;-72
2021/08/20 03:26:48;;;;;;;4.68;3.15;;;;;;;17.40;45.47;101166.25;2613280;54;20077;-72
2021/08/20 03:29:18;;;;;;;6.00;3.33;;;;;;;17.34;45.64;101158.63;2649325;36;20078;-71
2021/08/20 03:32:00;;;;;;;4.90;3.30;;;;;;;17.31;45.74;101156.19;2612763;47;20037;-72
2021/08/20 03:34:30;;;;;;;6.00;3.78;;;;;;;17.33;45.62;101156.03;2631994;31;20550;-71
2021/08/20 03:37:00;;;;;;;4.22;3.20;;;;;;;17.33;45.64;101158.81;2612886;47;20628;-72
2021/08/20 03:39:40;;;;;;;6.47;3.40;;;;;;;17.30;45.53;101157.22;2540592;54;2004348;-72
2021/08/20 03:42:13;;;;;;;5.85;3.17;;;;;;;17.34;45.76;101168.81;2612949;47;20046;-71
2021/08/20 03:44:49;;;;;;;5.50;3.10;;;;;;;17.31;45.57;101172.78;2612945;46;20031;-72
2021/08/20 03:47:19;;;;;;;5.13;3.33;;;;;;;17.30;45.75;101174.69;2648865;36;20035;-71
2021/08/20 03:49:49;;;;;;;4.47;2.88;;;;;;;17.30;45.53;101174.69;2613122;54;20034;-73
2021/08/20 03:52:20;;;;;;;4.18;2.75;;;;;;;17.31;46.00;101186.63;2612504;47;20179;-74
2021/08/20 03:54:50;;;;;;;5.15;2.95;;;;;;;17.32;45.78;101177.28;2613272;39;20892;-72
2021/08/20 03:57:26;;;;;;;4.68;3.00;;;;;;;17.37;46.36;101180.44;2612405;49;20080;-70
2021/08/20 03:59:56;;;;;;;4.30;2.65;;;;;;;17.31;46.11;101176.41;2612946;54;20046;-72
2021/08/20 04:02:26;;;;;;;5.40;3.05;;;;;;;17.35;45.80;101182.50;2665417;36;20012;-72
2021/08/20 04:04:56;;;;;;;4.95;3.10;;;;;;;17.38;45.91;101184.03;2612868;47;20035;-71
2021/08/20 04:07:36;;;;;;;4.80;3.22;;;;;;;17.38;45.83;101182.13;2611870;47;20038;-71
2021/08/20 04:10:16;;;;;;;5.30;3.10;;;;;;;17.39;45.65;101183.88;2613666;54;20156;-73
2021/08/20 04:13:00;;;;;;;4.88;3.03;;;;;;;17.40;45.90;101185.59;2613176;47;20056;-71
2021/08/20 04:15:42;;;;;;;5.10;3.00;;;;;;;17.42;45.87;101188.22;2612878;47;20033;-71
2021/08/20 04:18:14;;;;;;;4.68;3.20;;;;;;;17.43;45.69;101192.69;2649889;36;20035;-73
2021/08/20 04:20:45;;;;;;;4.97;3.10;;;;;;;17.43;45.69;101190.81;2613583;47;20095;-73
2021/08/20 04:23:15;;;;;;;5.13;3.03;;;;;;;17.43;45.59;101198.22;2649492;36;20118;-72
2021/08/20 04:25:49;;;;;;;5.90;3.10;;;;;;;17.44;45.92;101199.97;2614651;39;20456;-71
2021/08/20 04:28:42;;;;;;;6.60;3.42;;;;;;;17.45;45.95;101197.03;2613373;51;20065;-72
2021/08/20 04:31:47;;;;;;;4.97;2.97;;;;;;;17.42;45.79;101197.38;2613676;54;20038;-71
2021/08/20 04:34:28;;;;;;;5.78;3.03;;;;;;;17.42;45.70;101191.84;2631709;36;20031;-72
2021/08/20 04:37:26;;;;;;;5.15;2.85;;;;;;;17.42;45.77;101188.22;2613524;47;20034;-72
2021/08/20 04:39:56;;;;;;;5.15;2.83;;;;;;;17.43;45.45;101192.69;2613690;54;20042;-73
2021/08/20 04:42:45;;;;;;;5.75;3.05;;;;;;;17.41;46.08;101183.72;2613489;47;20061;-71
2021/08/20 04:45:48;;;;;;;4.50;2.83;;;;;;;17.43;45.71;101181.63;2613604;54;20078;-69
2021/08/20 04:48:45;;;;;;;4.55;2.92;;;;;;;17.40;46.29;101181.97;2616154;46;20026;-71
2021/08/20 04:51:35;;;;;;;5.15;2.90;;;;;;;17.40;45.65;101190.25;2616750;54;20061;-72
2021/08/20 04:54:13;;;;;;;6.03;2.72;;;;;;;17.40;46.23;101193.91;2616054;47;20053;-70
2021/08/20 04:56:59;;;;;;;4.32;2.78;;;;;;;17.40;45.80;101190.25;2616626;39;20279;-70
2021/08/20 05:02:26;;;;;;;5.85;3.30;;;;;;;17.44;45.92;101202.75;2620783;54;22311;-71
2021/08/20 05:04:57;;;;;;;5.00;3.03;;;;;;;17.38;45.86;101195.09;2622003;54;20038;-71
2021/08/20 05:07:27;;;;;;;4.80;3.08;;;;;;;17.36;45.82;101197.19;2621144;54;20038;-73
2021/08/20 05:09:57;;;;;;;4.28;3.03;;;;;;;17.37;46.10;101204.44;2622334;38;20751;-72
2021/08/20 05:12:26;;;;;;;5.28;2.67;;;;;;;17.36;45.80;101203.59;2621560;54;20157;-70
2021/08/20 05:14:56;;;;;;;5.20;3.25;;;;;;;17.35;46.26;101204.63;2620913;54;20026;-71
2021/08/20 05:17:29;;;;;;;5.15;3.00;;;;;;;17.39;46.08;101197.69;2619453;46;21400;-71
2021/08/20 05:19:58;;;;;;;6.10;2.97;;;;;;;17.34;46.32;101197.34;2619559;54;20045;-73
2021/08/20 05:22:28;;;;;;;5.47;3.05;;;;;;;17.37;45.99;101208.09;2619744;54;20042;-71
2021/08/20 05:24:58;;;;;;;4.85;2.83;;;;;;;17.37;46.09;101205.31;2619751;54;20042;-72
2021/08/20 05:27:28;;;;;;;5.47;3.30;;;;;;;17.38;46.28;101204.25;2637798;36;22788;-71
2021/08/20 05:30:03;;;;;;;8.70;3.53;;;;;;;17.41;46.14;101203.06;2619904;46;20875;-71
2021/08/20 05:32:36;;;;;;;6.05;3.70;;;;;;;17.42;46.37;101211.19;2618926;47;20030;-75
2021/08/20 05:35:08;;;;;;;7.65;3.25;;;;;;;17.39;47.14;101217.06;2618415;54;20038;-76
2021/08/20 05:37:38;;;;;;;8.57;3.65;;;;;;;17.38;46.56;101211.69;2618834;47;20042;-75
2021/08/20 05:40:09;;;;;;;5.35;3.08;;;;;;;17.44;46.64;101214.66;2619323;38;20436;-75
2021/08/20 05:42:39;;;;;;;5.65;3.47;;;;;;;17.43;46.82;101215.69;2618798;54;20046;-75
2021/08/20 05:45:10;;;;;;;7.38;3.65;;;;;;;17.47;46.54;101216.22;2617996;54;20034;-74
2021/08/20 05:47:42;;;;;;;5.90;3.40;;;;;;;17.48;46.80;101217.94;2618610;54;20049;-75
2021/08/20 05:50:12;;;;;;;6.38;3.58;;;;;;;17.45;46.58;101215.53;2618448;54;20027;-76
2021/08/20 05:52:42;;;;;;;6.85;3.28;;;;;;;17.48;46.31;101217.94;2619161;38;20504;-76
2021/08/20 05:55:13;;;;;;;6.47;3.65;;;;;;;17.50;47.20;101219.50;2618776;54;20034;-77
2021/08/20 05:57:42;;;;;;;6.03;3.83;;;;;;;17.51;46.89;101221.25;2618213;46;20069;-76
2021/08/20 06:00:14;;;;;;;6.90;3.78;;;;;;;17.54;46.83;101222.78;2618409;54;20034;-77
2021/08/20 06:02:52;;;;;;;7.43;4.13;;;;;;;17.57;47.18;101222.47;2617985;54;20045;-76
2021/08/20 06:05:23;;;;;;;6.40;3.88;;;;;;;17.57;47.23;101234.41;2617915;47;20057;-75
2021/08/20 06:07:53;;;;;;;7.40;3.88;;;;;;;17.58;46.91;101226.97;2617091;46;20049;-76
2021/08/20 06:10:24;;;;;;;6.13;3.85;;;;;;;17.59;46.90;101232.34;2618352;54;20054;-75
2021/08/20 06:12:53;;;;;;;6.38;3.67;;;;;;;17.60;46.96;101227.66;2615905;54;20042;-76
2021/08/20 06:15:24;;;;;;;6.00;3.50;;;;;;;17.61;47.18;101230.28;2613283;54;20109;-77
2021/08/20 06:17:56;;;;;;;5.95;3.80;;;;;;;17.66;46.94;101238.06;2616927;46;20035;-75
2021/08/20 06:20:26;;;;;;;7.72;4.03;;;;;;;17.63;47.20;101236.47;2612998;39;20154;-76
2021/08/20 06:22:56;;;;;;;6.07;3.40;;;;;;;17.67;47.04;101234.25;2612789;54;20042;-75
2021/08/20 06:25:26;;;;;;;6.00;3.97;;;;;;;17.70;47.13;101239.47;2613098;54;20042;-76
2021/08/20 06:27:55;;;;;;;6.88;3.80;;;;;;;17.72;47.40;101237.38;2612584;46;20038;-75
2021/08/20 06:30:25;;;;;;;6.03;3.58;;;;;;;17.74;47.65;101234.44;2613244;54;20046;-75
2021/08/20 06:32:58;;;;;;;7.05;3.90;;;;;;;17.79;47.21;101238.41;2613070;54;20046;-75
2021/08/20 06:35:28;;;;;;;6.18;3.55;;;;;;;17.77;47.26;101236.88;2613139;54;20045;-74
2021/08/20 06:37:58;;;;;;;6.50;3.70;;;;;;;17.81;47.13;101238.25;2611927;54;20552;-75
2021/08/20 06:40:28;;;;;;;7.13;3.83;;;;;;;17.83;47.25;101248.13;2612797;54;20079;-73
2021/08/20 06:42:57;;;;;;;6.82;4.18;;;;;;;17.84;47.16;101244.31;2613010;39;20441;-72
2021/08/20 06:45:27;;;;;;;6.70;4.13;;;;;;;17.87;47.33;101251.38;2612062;36;20026;-75
2021/08/20 06:48:00;;;;;;;6.30;3.58;;;;;;;17.91;46.82;101238.97;2612813;54;20588;-76
2021/08/20 06:50:30;;;;;;;6.05;3.58;;;;;;;17.89;47.18;101246.56;2612555;54;20654;-76
2021/08/20 06:52:59;;;;;;;5.75;3.63;;;;;;;17.92;47.41;101254.53;2613130;54;20060;-77
2021/08/20 06:55:34;;;;;;;6.30;3.70;;;;;;;17.97;47.14;101243.81;2615009;39;20462;-77
2021/08/20 06:58:04;;;;;;;8.88;3.95;;;;;;;17.96;47.84;101256.78;2615289;54;20049;-75
2021/08/20 07:00:33;;;;;;;5.85;3.72;;;;;;;17.99;47.39;101266.66;2614481;54;20042;-75
2021/08/20 07:03:06;;;;;;;6.53;3.95;;;;;;;18.02;47.41;101247.81;2614152;54;20137;-74
2021/08/20 07:05:36;;;;;;;5.72;3.60;;;;;;;18.03;47.44;101254.22;2615708;54;20050;-75
2021/08/20 07:08:08;;;;;;;6.95;3.95;;;;;;;18.06;47.50;101253.88;2616460;54;20154;-74
2021/08/20 07:10:38;;;;;;;7.72;4.30;;;;;;;18.05;47.75;101254.91;2616324;54;20038;-75
2021/08/20 07:13:08;;;;;;;7.55;3.92;;;;;;;18.09;47.73;101247.13;2615680;54;20042;-74
2021/08/20 07:15:38;;;;;;;7.47;4.10;;;;;;;18.12;47.73;101249.53;2615004;39;20448;-74
2021/08/20 07:18:11;;;;;;;6.25;3.92;;;;;;;18.15;47.69;101251.97;2615105;54;20036;-74
2021/08/20 07:20:41;;;;;;;7.28;4.25;;;;;;;18.13;47.54;101254.03;2614282;54;20038;-74
2021/08/20 07:23:11;;;;;;;6.15;3.83;;;;;;;18.17;47.61;101258.22;2614945;47;20041;-74
2021/08/20 07:25:40;;;;;;;6.50;3.72;;;;;;;18.18;47.57;101251.66;2614849;54;20038;-73
2021/08/20 07:28:10;;;;;;;6.72;4.03;;;;;;;18.20;47.39;101257.84;2651664;36;20030;-74
2021/08/20 07:30:40;;;;;;;8.73;4.72;;;;;;;18.22;48.05;101258.56;2615518;39;20482;-74
2021/08/20 07:33:13;;;;;;;6.78;3.90;;;;;;;18.26;47.58;101262.72;2615108;54;20035;-73
2021/08/20 07:35:42;;;;;;;7.30;4.18;;;;;;;18.23;47.68;101261.16;2614780;47;20031;-74
2021/08/20 07:38:12;;;;;;;7.10;4.30;;;;;;;18.27;47.99;101264.47;2615285;39;20911;-74
2021/08/20 07:40:42;;;;;;;7.20;4.30;;;;;;;18.28;48.04;101258.72;2614840;54;20046;-74
2021/08/20 07:43:12;;;;;;;8.15;3.95;;;;;;;18.31;47.79;101271.38;2652203;36;20041;-74
2021/08/20 07:45:42;;;;;;;8.77;4.22;;;;;;;18.32;47.96;101268.44;2617147;54;20061;-74
2021/08/20 07:48:14;;;;;;;7.03;4.05;;;;;;;18.39;48.10;101263.94;2652871;36;20023;-73
2021/08/20 07:50:48;;;;;;;7.03;4.15;;;;;;;18.43;48.39;101262.56;2615422;47;20402;-74
2021/08/20 07:53:18;;;;;;;6.40;3.90;;;;;;;18.46;48.27;101269.63;2651435;36;20030;-74
2021/08/20 07:55:53;;;;;;;6.90;3.95;;;;;;;18.52;48.79;101268.94;2615429;39;20417;-73
2021/08/20 07:58:22;;;;;;;5.82;3.42;;;;;;;18.60;49.01;101268.06;2615171;47;20038;-72
2021/08/20 08:00:52;;;;;;;6.95;3.65;;;;;;;18.71;48.89;101271.34;2614248;54;20042;-73
2021/08/20 08:03:25;;;;;;;7.85;4.65;;;;;;;18.83;48.64;101265.47;2614961;39;20441;-72
2021/08/20 08:05:55;;;;;;;7.75;4.78;;;;;;;18.89;48.57;101267.53;2614336;54;20038;-73
2021/08/20 08:08:25;;;;;;;6.78;3.80;;;;;;;18.97;48.29;101278.59;2613770;54;21003;-73
2021/08/20 08:10:55;;;;;;;7.30;4.28;;;;;;;19.05;48.54;101273.03;2614359;54;20038;-73
2021/08/20 08:13:24;;;;;;;6.18;3.58;;;;;;;19.11;48.13;101272.28;2650717;36;20100;-74
2021/08/20 08:15:54;;;;;;;5.38;3.17;;;;;;;19.19;48.25;101272.28;2613991;39;20449;-73
2021/08/20 08:18:27;;;;;;;5.30;3.03;;;;;;;19.28;48.05;101273.97;2614452;54;20034;-73
2021/08/20 08:20:57;;;;;;;6.72;3.47;;;;;;;19.32;47.90;101272.59;2614617;54;20037;-73
2021/08/20 08:23:26;;;;;;;4.85;2.92;;;;;;;19.40;47.71;101280.88;2650691;36;20022;-73
2021/08/20 08:25:56;;;;;;;5.43;2.97;;;;;;;19.46;46.91;101274.59;2614100;54;20572;-72
2021/08/20 08:28:26;;;;;;;4.72;2.58;;;;;;;19.51;47.11;101272.16;2650748;36;20054;-73
2021/08/20 08:31:01;;;;;;;4.18;2.40;;;;;;;19.54;47.20;101273.72;2614086;54;20584;-73
2021/08/20 08:33:33;;;;;;;4.35;2.50;;;;;;;19.60;46.81;101277.66;2612739;47;20038;-73
2021/08/20 08:36:03;;;;;;;4.00;2.30;;;;;;;19.60;47.08;101275.75;2614459;54;20030;-73
2021/08/20 08:38:33;;;;;;;3.35;2.10;;;;;;;19.67;46.87;101282.34;2651478;36;20026;-74
2021/08/20 08:41:05;;;;;;;5.95;2.15;;;;;;;19.73;46.81;101287.16;2615895;54;20031;-63
2021/08/20 08:43:35;;;;;;;3.90;2.10;;;;;;;19.76;46.91;101286.78;2652539;36;20034;-63
2021/08/20 08:46:09;;;;;;;3.70;1.90;;;;;;;19.84;47.00;101283.94;2615750;54;20045;-63
2021/08/20 08:48:43;;;;;;;3.03;1.75;;;;;;;19.91;46.41;101289.66;2652641;36;20029;-64
2021/08/20 08:51:14;;;;;;;3.05;1.83;;;;;;;19.98;46.66;101289.78;2616262;54;20035;-64
2021/08/20 08:53:44;;;;;;;3.40;1.50;;;;;;;20.02;46.60;101285.56;2652866;36;20022;-63
2021/08/20 08:56:14;;;;;;;3.15;1.80;;;;;;;20.08;46.39;101293.19;2615751;54;20118;-64
2021/08/20 08:58:43;;;;;;;2.97;1.73;;;;;;;20.12;46.01;101298.19;2652653;36;20029;-64
2021/08/20 09:01:29;;;;;;;3.30;1.77;;;;;;;20.19;45.90;101292.75;2616213;54;20037;-64
2021/08/20 09:04:16;;;;;;;3.53;1.63;;;;;;;20.21;45.39;101294.31;2652755;36;20030;-63
2021/08/20 09:06:48;;;;;;;2.88;1.65;;;;;;;20.24;45.62;101290.31;2617228;54;20031;-64
2021/08/20 09:09:20;;;;;;;3.38;1.73;;;;;;;20.24;45.18;101290.31;2653208;36;20036;-64
2021/08/20 09:11:54;;;;;;;3.92;1.90;;;;;;;20.28;45.13;101298.09;2617581;54;20082;-64
2021/08/20 09:14:32;;;;;;;2.38;1.40;;;;;;;20.30;45.05;101287.66;2653614;36;20027;-64
2021/08/20 09:17:02;;;;;;;3.28;1.80;;;;;;;20.29;45.56;101297.03;2617306;54;20122;-63
2021/08/20 09:19:34;;;;;;;3.28;1.85;;;;;;;20.33;45.85;101300.31;2633889;36;20110;-62
2021/08/20 09:22:12;;;;;;;2.63;1.73;;;;;;;20.34;45.71;101301.19;2615088;54;20031;-63
2021/08/20 09:24:43;;;;;;;3.25;1.70;;;;;;;20.34;45.51;101293.69;2543221;54;2004048;-63
2021/08/20 09:27:25;;;;;;;3.00;1.90;;;;;;;20.35;44.96;101297.34;2652192;36;20556;-63
2021/08/20 09:30:02;;;;;;;3.28;1.73;;;;;;;20.37;45.19;101304.44;2614271;54;20035;-63
2021/08/20 09:32:32;;;;;;;2.53;1.70;;;;;;;20.35;45.52;101289.88;2652051;36;20034;-63
2021/08/20 09:35:06;;;;;;;3.33;2.10;;;;;;;20.39;45.15;101299.56;2614875;54;20038;-63
2021/08/20 09:37:36;;;;;;;3.58;1.52;;;;;;;20.38;45.27;101300.63;2651514;36;20030;-63
2021/08/20 09:40:10;;;;;;;3.22;1.65;;;;;;;20.40;45.66;101295.75;2614518;54;20101;-63
2021/08/20 09:42:40;;;;;;;2.90;1.52;;;;;;;20.39;45.33;101296.78;2651798;36;20018;-63
2021/08/20 09:45:18;;;;;;;3.38;1.77;;;;;;;20.44;45.31;101310.13;2614753;54;20045;-63
2021/08/20 09:47:50;;;;;;;3.58;1.90;;;;;;;20.43;45.24;101312.03;2651418;36;20030;-64
2021/08/20 09:50:25;;;;;;;5.00;2.50;;;;;;;20.44;45.70;101321.22;2615254;54;20034;-67
2021/08/20 09:52:54;;;;;;;3.80;2.65;;;;;;;20.40;45.79;101314.34;2652478;36;20664;-62
2021/08/20 09:55:39;;;;;;;4.35;2.80;;;;;;;20.41;46.38;101322.50;2615741;54;20030;-64
2021/08/20 09:58:11;;;;;;;3.40;2.35;;;;;;;20.35;45.81;101314.88;2652347;36;20022;-64
2021/08/20 10:00:43;;;;;;;;;;;;;;;20.08;46.91;101323.75;2616200;54;20061;-62
2021/08/20 10:03:16;;;;;;;3.65;2.28;;;;;;;20.32;46.27;101320.81;2652220;36;19950;-64
2021/08/20 10:05:50;;;;;;;4.10;2.47;;;;;;;20.34;46.38;101315.09;2615897;54;20700;-64
2021/08/20 10:08:21;;;;;;;4.50;2.60;;;;;;;20.30;46.59;101314.56;2652789;36;20461;-63
2021/08/20 10:10:54;;;;;;;4.50;2.42;;;;;;;20.30;46.63;101318.22;2616014;54;20062;-64
2021/08/20 10:13:25;;;;;;;3.83;2.60;;;;;;;20.25;46.76;101314.28;2652794;36;20031;-64
2021/08/20 10:15:57;;;;;;;5.00;2.50;;;;;;;20.24;46.57;101318.09;2616000;54;20097;-63
2021/08/20 10:18:32;;;;;;;4.57;2.40;;;;;;;20.24;47.26;101318.09;2652343;36;20053;-62
2021/08/20 10:21:05;;;;;;;3.20;1.52;;;;;;;20.22;47.16;101312.72;2616134;54;20037;-63
2021/08/20 10:23:35;;;;;;;1.95;1.23;;;;;;;20.19;46.70;101321.38;2652375;36;20033;-63
2021/08/20 10:26:07;;;;;;;1.38;0.85;;;;;;;20.21;47.21;101321.25;2615775;54;20038;-68
2021/08/20 10:28:37;;;;;;;2.13;0.70;;;;;;;20.18;47.62;101322.44;2652941;36;20029;-67
2021/08/20 10:31:08;;;;;;;1.65;0.82;;;;;;;20.18;47.69;101316.88;2616363;39;20476;-67
2021/08/20 10:33:39;;;;;;;2.08;0.68;;;;;;;20.19;47.55;101314.97;2652157;36;20033;-67
2021/08/20 10:36:11;;;;;;;1.02;0.65;;;;;;;20.21;47.91;101321.25;2615801;39;20455;-67
2021/08/20 10:38:46;;;;;;;1.63;0.70;;;;;;;20.23;48.36;101319.16;2652418;36;20041;-67
2021/08/20 10:41:18;;;;;;;2.28;0.75;;;;;;;20.23;48.02;101314.47;2616264;54;20039;-67
2021/08/20 10:43:51;;;;;;;;;;;;;;;19.97;48.74;101313.91;2652327;36;21051;-68
2021/08/20 10:46:51;;;;;;;1.00;0.60;;;;;;;20.28;48.53;101320.31;2615100;54;19950;-67
2021/08/20 10:49:24;;;;;;;1.45;0.65;;;;;;;20.34;48.53;101318.69;2651770;36;20059;-67
2021/08/20 10:52:04;;;;;;;0.52;0.50;;;;;;;20.43;48.06;101325.91;2613841;54;20035;-67
2021/08/20 10:55:04;;;;;;;0.75;0.50;;;;;;;20.45;47.59;101320.19;2633274;36;20034;-66
2021/08/20 10:57:56;;;;;;;2.17;0.70;;;;;;;20.48;47.73;101325.38;2651159;36;20050;-67
2021/08/20 11:00:28;;;;;;;0.85;0.55;;;;;;;20.49;48.15;101318.78;2613715;54;20038;-67
2021/08/20 11:02:59;;;;;;;;;;;;;;;20.25;48.44;101322.63;2652160;36;20038;-67
2021/08/20 11:05:43;;;;;;;1.20;0.80;;;;;;;20.58;48.08;101315.72;2613714;54;20428;-67
2021/08/20 11:08:40;;;;;;;1.23;0.73;;;;;;;20.60;47.81;101310.84;2662674;36;20554;-67
2021/08/20 11:11:40;;;;;;;0.70;0.45;;;;;;;20.66;47.78;101312.91;2612630;54;20069;-67
2021/08/20 11:14:38;;;;;;;1.02;0.60;;;;;;;20.65;48.30;101316.72;2650253;36;20038;-68
2021/08/20 11:17:12;;;;;;;0.82;0.60;;;;;;;20.75;48.21;101315.59;2648357;36;20633;-68
2021/08/20 11:19:58;;;;;;;1.40;0.68;;;;;;;20.84;47.75;101322.78;2614516;54;20037;-68
2021/08/20 11:22:29;;;;;;;0.85;0.55;;;;;;;20.88;47.73;101318.59;2651512;36;20026;-68
2021/08/20 11:25:15;;;;;;;0.80;0.40;;;;;;;20.97;47.25;101317.47;2613900;54;20050;-68
2021/08/20 11:28:04;;;;;;;1.23;0.60;;;;;;;21.03;47.00;101320.38;2650772;36;20287;-68
2021/08/20 11:30:36;;;;;;;0.90;0.65;;;;;;;21.08;46.77;101320.66;2614489;54;20046;-68
2021/08/20 11:33:20;;;;;;;1.10;0.80;;;;;;;21.13;46.17;101320.09;2651663;36;20049;-68
2021/08/20 11:35:54;;;;;;;0.80;0.60;;;;;;;21.16;46.46;101308.56;2615068;54;20038;-68
2021/08/20 11:38:30;;;;;;;1.35;0.80;;;;;;;21.20;46.10;101312.72;2651653;36;20552;-69
2021/08/20 11:41:09;;;;;;;1.15;0.80;;;;;;;21.23;45.90;101309.56;2614793;54;20061;-69
2021/08/20 11:43:57;;;;;;;1.67;0.80;;;;;;;21.22;46.51;101305.03;2651232;36;20038;-68
2021/08/20 11:46:29;;;;;;;1.75;1.02;;;;;;;21.28;46.09;101308.97;2615131;54;20567;-68
2021/08/20 11:49:01;;;;;;;0.90;0.80;;;;;;;21.32;46.18;101301.97;2651332;36;20536;-69
2021/08/20 11:51:33;;;;;;;1.38;0.95;;;;;;;21.36;46.32;101306.94;2614613;54;20042;-68
2021/08/20 11:54:05;;;;;;;0.82;0.65;;;;;;;21.40;45.92;101305.53;2651517;36;20029;-68
2021/08/20 11:56:39;;;;;;;2.85;1.00;;;;;;;21.46;45.69;101309.44;2615179;54;20031;-69
2021/08/20 11:59:11;;;;;;;1.77;1.10;;;;;;;21.51;45.32;101303.28;2651691;36;20436;-69